createdAt,value
2022-09-06T00:00:26.839Z,100048.97
2022-09-06T00:01:02.219Z,100048.71
2022-09-06T00:01:35.558Z,100043.73
2022-09-06T00:02:09.062Z,100046.15
2022-09-06T00:02:43.617Z,100044.21
2022-09-06T00:03:17.067Z,100045.02
2022-09-06T00:03:51.261Z,100041.68
2022-09-06T00:04:24.569Z,100042.43
2022-09-06T00:04:57.926Z,100040.64
2022-09-06T00:05:32.429Z,100044.98
2022-09-06T00:06:14.259Z,100044.79
2022-09-06T00:06:47.633Z,100042.81
2022-09-06T00:07:20.755Z,100042.19
2022-09-06T00:07:54.252Z,100044.10
2022-09-06T00:08:27.632Z,100043.11
2022-09-06T00:09:01.160Z,100040.39
2022-09-06T00:09:34.333Z,100041.83
2022-09-06T00:10:08.040Z,100041.06
2022-09-06T00:10:43.155Z,100041.33
2022-09-06T00:11:18.328Z,100041.23
2022-09-06T00:11:51.461Z,100040.71
2022-09-06T00:12:25.820Z,100038.87
2022-09-06T00:13:07.618Z,100039.27
2022-09-06T00:13:41.439Z,100039.00
2022-09-06T00:14:14.608Z,100039.06
2022-09-06T00:14:47.827Z,100041.42
2022-09-06T00:15:22.678Z,100038.15
2022-09-06T00:15:56.125Z,100040.09
2022-09-06T00:16:30.571Z,100040.52
2022-09-06T00:17:04.106Z,100037.90
2022-09-06T00:17:37.769Z,100041.70
2022-09-06T00:18:10.963Z,100042.06
2022-09-06T00:18:45.249Z,100040.52
2022-09-06T00:19:18.568Z,100039.37
2022-09-06T00:19:52.089Z,100039.82
2022-09-06T00:20:27.632Z,100040.54
2022-09-06T00:21:01.192Z,100041.80
2022-09-06T00:21:35.874Z,100037.79
2022-09-06T00:22:09.029Z,100039.70
2022-09-06T00:22:42.263Z,100037.27
2022-09-06T00:23:15.422Z,100036.41
2022-09-06T00:23:48.661Z,100035.95
2022-09-06T00:24:21.781Z,100035.56
2022-09-06T00:24:54.852Z,100033.79
2022-09-06T00:25:29.597Z,100031.94
2022-09-06T00:26:05.075Z,100030.55
2022-09-06T00:26:38.187Z,100027.04
2022-09-06T00:27:11.370Z,100027.03
2022-09-06T00:27:44.525Z,100025.27
2022-09-06T00:28:17.802Z,100024.17
2022-09-06T00:28:50.936Z,100026.20
2022-09-06T00:29:24.069Z,100024.77
2022-09-06T00:29:57.267Z,100024.29
2022-09-06T00:30:31.575Z,100022.38
2022-09-06T00:31:17.478Z,100023.55
2022-09-06T00:31:50.704Z,100021.60
2022-09-06T00:32:23.950Z,100022.29
2022-09-06T00:32:57.930Z,100021.11
2022-09-06T00:33:31.017Z,100020.44
2022-09-06T00:34:04.233Z,100021.39
2022-09-06T00:34:37.396Z,100021.40
2022-09-06T00:35:10.619Z,100021.85
2022-09-06T00:35:47.502Z,100018.42
2022-09-06T00:36:22.021Z,100022.66
2022-09-06T00:36:55.115Z,100018.63
2022-09-06T00:37:28.439Z,100020.73
2022-09-06T00:38:02.277Z,100020.95
2022-09-06T00:38:36.053Z,100020.79
2022-09-06T00:39:09.204Z,100019.92
2022-09-06T00:39:42.389Z,100023.94
2022-09-06T00:40:16.598Z,100022.20
2022-09-06T00:40:49.758Z,100018.85
2022-09-06T00:41:23.012Z,100018.23
2022-09-06T00:41:56.132Z,100019.95
2022-09-06T00:42:29.194Z,100018.65
2022-09-06T00:43:02.359Z,100020.67
2022-09-06T00:43:35.937Z,100020.96
2022-09-06T00:44:09.291Z,100019.11
2022-09-06T00:44:42.437Z,100017.80
2022-09-06T00:45:15.937Z,100016.36
2022-09-06T00:45:49.496Z,100018.13
2022-09-06T00:46:27.717Z,100016.98
2022-09-06T00:47:01.891Z,100018.03
2022-09-06T00:47:36.903Z,100021.81
2022-09-06T00:48:10.123Z,100020.00
2022-09-06T00:48:45.814Z,100019.34
2022-09-06T00:49:29.047Z,100020.55
2022-09-06T00:50:03.495Z,100016.88
2022-09-06T00:50:36.826Z,100019.60
2022-09-06T00:51:12.201Z,100019.86
2022-09-06T00:51:45.285Z,100021.66
2022-09-06T00:52:20.136Z,100022.69
2022-09-06T00:52:53.755Z,100027.42
2022-09-06T00:53:27.668Z,100025.70
2022-09-06T00:54:04.590Z,100028.55
2022-09-06T00:54:38.273Z,100028.20
2022-09-06T00:55:11.744Z,100027.94
2022-09-06T00:55:45.547Z,100029.48
2022-09-06T00:56:18.988Z,100029.31
2022-09-06T00:56:52.276Z,100029.48
2022-09-06T00:57:27.465Z,100030.00
2022-09-06T00:58:00.841Z,100027.33
2022-09-06T00:58:35.355Z,100029.33
2022-09-06T00:59:08.705Z,100028.18
2022-09-06T00:59:42.951Z,100027.31
2022-09-06T01:00:16.377Z,100029.68
2022-09-06T01:00:49.485Z,100026.86
2022-09-06T01:01:22.671Z,100028.67
2022-09-06T01:01:55.974Z,100025.77
2022-09-06T01:02:29.492Z,100026.12
2022-09-06T01:03:03.859Z,100026.65
2022-09-06T01:03:38.103Z,100024.75
2022-09-06T01:04:11.823Z,100026.05
2022-09-06T01:04:47.962Z,100026.39
2022-09-06T01:05:26.060Z,100026.42
2022-09-06T01:06:16.382Z,100026.67
2022-09-06T01:07:15.596Z,100027.48
2022-09-06T01:08:14.308Z,100025.77
2022-09-06T01:09:12.871Z,100030.47
2022-09-06T01:09:52.695Z,100029.09
2022-09-06T01:10:31.707Z,100028.62
2022-09-06T01:11:22.987Z,100029.93
2022-09-06T01:12:14.103Z,100026.92
2022-09-06T01:12:59.437Z,100029.02
2022-09-06T01:14:12.108Z,100028.66
2022-09-06T01:14:48.180Z,100028.09
2022-09-06T01:15:35.497Z,100027.16
2022-09-06T01:16:17.232Z,100027.71
2022-09-06T01:16:59.449Z,100029.59
2022-09-06T01:18:27.152Z,100027.58
2022-09-06T01:19:07.293Z,100029.92
2022-09-06T01:20:20.544Z,100028.73
2022-09-06T01:21:09.103Z,100028.08
2022-09-06T01:21:55.128Z,100029.21
2022-09-06T01:22:58.680Z,100028.45
2022-09-06T01:24:05.577Z,100026.05
2022-09-06T01:25:23.741Z,100027.84
2022-09-06T01:26:02.997Z,100027.73
2022-09-06T01:27:07.212Z,100023.95
2022-09-06T01:27:59.027Z,100024.38
2022-09-06T01:28:43.525Z,100024.60
2022-09-06T01:29:42.440Z,100025.42
2022-09-06T01:30:19.159Z,100026.48
2022-09-06T01:31:00.798Z,100026.84
2022-09-06T01:31:42.556Z,100026.65
2022-09-06T01:32:20.225Z,100026.89
2022-09-06T01:33:14.640Z,100028.29
2022-09-06T01:34:05.919Z,100028.64
2022-09-06T01:34:45.926Z,100025.27
2022-09-06T01:35:24.401Z,100026.41
2022-09-06T01:36:05.303Z,100028.06
2022-09-06T01:37:09.489Z,100029.08
2022-09-06T01:37:43.898Z,100029.91
2022-09-06T01:38:17.923Z,100030.41
2022-09-06T01:38:51.391Z,100028.03
2022-09-06T01:39:29.700Z,100029.54
2022-09-06T01:40:03.110Z,100027.65
2022-09-06T01:40:36.814Z,100027.81
2022-09-06T01:41:10.878Z,100023.21
2022-09-06T01:41:44.082Z,100026.32
2022-09-06T01:42:32.343Z,100025.61
2022-09-06T01:43:11.187Z,100022.66
2022-09-06T01:43:48.878Z,100020.20
2022-09-06T01:44:23.474Z,100017.40
2022-09-06T01:45:01.712Z,100016.02
2022-09-06T01:46:11.048Z,100015.02
2022-09-06T01:46:56.448Z,100015.88
2022-09-06T01:47:42.495Z,100013.74
2022-09-06T01:48:34.574Z,100012.45
2022-09-06T01:49:27.025Z,100019.00
2022-09-06T01:50:10.038Z,100015.33
2022-09-06T01:51:09.363Z,100015.85
2022-09-06T01:51:53.278Z,100018.30
2022-09-06T01:52:51.924Z,100018.23
2022-09-06T01:53:51.809Z,100014.73
2022-09-06T01:54:48.642Z,100020.41
2022-09-06T01:55:35.053Z,100023.52
2022-09-06T01:56:22.189Z,100022.44
2022-09-06T01:57:32.271Z,100025.65
2022-09-06T01:58:31.312Z,100028.02
2022-09-06T01:59:29.671Z,100027.23
2022-09-06T02:00:10.640Z,100026.61
2022-09-06T02:01:26.818Z,100029.69
2022-09-06T02:02:09.666Z,100034.05
2022-09-06T02:02:48.635Z,100035.84
2022-09-06T02:03:47.821Z,100036.18
2022-09-06T02:04:28.351Z,100038.70
2022-09-06T02:05:10.969Z,100041.23
2022-09-06T02:05:51.930Z,100037.95
2022-09-06T02:06:30.544Z,100040.25
2022-09-06T02:07:13.844Z,100037.13
2022-09-06T02:07:50.661Z,100040.98
2022-09-06T02:08:33.822Z,100040.08
2022-09-06T02:09:16.448Z,100040.70
2022-09-06T02:10:06.929Z,100040.12
2022-09-06T02:11:07.841Z,100041.55
2022-09-06T02:11:48.898Z,100041.45
2022-09-06T02:12:25.019Z,100038.43
2022-09-06T02:13:01.720Z,100036.95
2022-09-06T02:13:43.180Z,100036.09
2022-09-06T02:14:24.053Z,100034.92
2022-09-06T02:15:10.654Z,100035.42
2022-09-06T02:15:50.991Z,100032.73
2022-09-06T02:16:27.882Z,100030.08
2022-09-06T02:17:03.224Z,100034.23
2022-09-06T02:17:43.167Z,100035.20
2022-09-06T02:18:32.132Z,100031.75
2022-09-06T02:19:15.435Z,100034.30
2022-09-06T02:20:02.964Z,100030.38
2022-09-06T02:20:43.094Z,100031.02
2022-09-06T02:21:18.570Z,100030.31
2022-09-06T02:21:54.755Z,100028.83
2022-09-06T02:22:31.942Z,100030.61
2022-09-06T02:23:08.722Z,100031.02
2022-09-06T02:23:43.709Z,100029.27
2022-09-06T02:24:23.360Z,100027.70
2022-09-06T02:24:59.221Z,100029.80
2022-09-06T02:25:38.400Z,100030.55
2022-09-06T02:26:19.365Z,100032.70
2022-09-06T02:26:52.623Z,100032.42
2022-09-06T02:27:26.317Z,100031.40
2022-09-06T02:27:59.718Z,100034.05
2022-09-06T02:28:33.387Z,100030.94
2022-09-06T02:29:06.833Z,100029.46
2022-09-06T02:29:40.348Z,100031.16
2022-09-06T02:30:13.734Z,100029.40
2022-09-06T02:30:51.384Z,100031.45
2022-09-06T02:31:30.218Z,100030.34
2022-09-06T02:32:22.869Z,100035.10
2022-09-06T02:33:05.045Z,100034.72
2022-09-06T02:33:38.415Z,100038.11
2022-09-06T02:34:15.940Z,100034.34
2022-09-06T02:34:54.924Z,100033.48
2022-09-06T02:35:28.408Z,100034.50
2022-09-06T02:36:07.425Z,100032.73
2022-09-06T02:36:40.562Z,100035.52
2022-09-06T02:37:15.907Z,100034.56
2022-09-06T02:37:50.520Z,100034.20
2022-09-06T02:38:25.531Z,100035.36
2022-09-06T02:39:02.155Z,100033.02
2022-09-06T02:39:35.394Z,100032.54
2022-09-06T02:40:10.525Z,100034.64
2022-09-06T02:40:45.120Z,100033.21
2022-09-06T02:41:23.333Z,100031.89
2022-09-06T02:41:56.481Z,100033.30
2022-09-06T02:42:29.600Z,100033.42
2022-09-06T02:43:02.778Z,100033.42
2022-09-06T02:43:36.269Z,100030.70
2022-09-06T02:44:09.453Z,100028.72
2022-09-06T02:44:42.678Z,100029.02
2022-09-06T02:45:15.894Z,100029.19
2022-09-06T02:45:49.060Z,100030.17
2022-09-06T02:46:23.935Z,100030.39
2022-09-06T02:46:57.445Z,100030.36
2022-09-06T02:47:30.720Z,100030.07
2022-09-06T02:48:04.411Z,100025.27
2022-09-06T02:48:37.578Z,100027.36
2022-09-06T02:49:10.667Z,100026.73
2022-09-06T02:49:43.628Z,100026.25
2022-09-06T02:50:16.745Z,100024.77
2022-09-06T02:50:50.377Z,100023.42
2022-09-06T02:51:24.052Z,100026.34
2022-09-06T02:51:57.442Z,100025.41
2022-09-06T02:52:30.558Z,100024.23
2022-09-06T02:53:05.066Z,100026.15
2022-09-06T02:53:38.590Z,100025.49
2022-09-06T02:54:11.891Z,100025.73
2022-09-06T02:54:45.573Z,100025.86
2022-09-06T02:55:18.673Z,100026.41
2022-09-06T02:55:51.889Z,100026.08
2022-09-06T02:56:25.158Z,100029.55
2022-09-06T02:56:58.467Z,100023.19
2022-09-06T02:57:31.536Z,100021.91
2022-09-06T02:58:06.904Z,100020.75
2022-09-06T02:58:40.477Z,100024.69
2022-09-06T02:59:13.534Z,100022.58
2022-09-06T02:59:46.637Z,100021.39
2022-09-06T03:00:19.864Z,100026.98
2022-09-06T03:00:53.827Z,100023.35
2022-09-06T03:01:27.536Z,100022.44
2022-09-06T03:02:00.882Z,100022.66
2022-09-06T03:02:34.239Z,100022.91
2022-09-06T03:03:08.195Z,100019.00
2022-09-06T03:03:41.508Z,100020.34
2022-09-06T03:04:14.765Z,100021.59
2022-09-06T03:04:47.780Z,100021.00
2022-09-06T03:05:21.010Z,100024.40
2022-09-06T03:05:55.210Z,100025.91
2022-09-06T03:06:28.719Z,100026.55
2022-09-06T03:07:01.934Z,100025.41
2022-09-06T03:07:35.046Z,100027.31
2022-09-06T03:08:08.172Z,100025.57
2022-09-06T03:08:41.317Z,100029.80
2022-09-06T03:09:14.322Z,100027.57
2022-09-06T03:09:47.368Z,100026.56
2022-09-06T03:10:21.833Z,100026.02
2022-09-06T03:10:57.218Z,100025.67
2022-09-06T03:11:30.301Z,100024.58
2022-09-06T03:12:03.662Z,100028.46
2022-09-06T03:12:36.804Z,100025.77
2022-09-06T03:13:09.941Z,100023.87
2022-09-06T03:13:43.181Z,100024.98
2022-09-06T03:14:17.440Z,100025.09
2022-09-06T03:14:54.676Z,100024.77
2022-09-06T03:15:28.272Z,100023.86
2022-09-06T03:16:01.803Z,100024.24
2022-09-06T03:16:35.398Z,100022.84
2022-09-06T03:17:08.720Z,100023.46
2022-09-06T03:17:42.985Z,100019.91
2022-09-06T03:18:16.246Z,100020.84
2022-09-06T03:18:49.613Z,100019.67
2022-09-06T03:19:22.743Z,100021.20
2022-09-06T03:19:55.951Z,100019.26
2022-09-06T03:20:30.285Z,100015.48
2022-09-06T03:21:05.331Z,100012.02
2022-09-06T03:21:38.638Z,100016.95
2022-09-06T03:22:11.748Z,100013.25
2022-09-06T03:22:44.987Z,100014.02
2022-09-06T03:23:22.407Z,100012.02
2022-09-06T03:23:55.624Z,100011.42
2022-09-06T03:24:28.847Z,100009.97
2022-09-06T03:25:02.176Z,100010.66
2022-09-06T03:25:36.272Z,100011.09
2022-09-06T03:26:09.424Z,100012.27
2022-09-06T03:26:42.720Z,100013.40
2022-09-06T03:27:16.675Z,100011.21
2022-09-06T03:27:50.039Z,100010.44
2022-09-06T03:28:24.070Z,100013.11
2022-09-06T03:28:57.294Z,100014.05
2022-09-06T03:29:30.495Z,100015.67
2022-09-06T03:30:05.358Z,100016.20
2022-09-06T03:30:39.910Z,100017.57
2022-09-06T03:31:13.530Z,100016.23
2022-09-06T03:31:46.670Z,100014.85
2022-09-06T03:32:19.830Z,100012.54
2022-09-06T03:32:53.038Z,100017.70
2022-09-06T03:33:26.324Z,100016.30
2022-09-06T03:33:59.332Z,100013.66
2022-09-06T03:34:32.427Z,100016.25
2022-09-06T03:35:05.884Z,100017.48
2022-09-06T03:35:39.247Z,100017.52
2022-09-06T03:36:12.382Z,100016.70
2022-09-06T03:36:45.544Z,100017.80
2022-09-06T03:37:19.723Z,100018.90
2022-09-06T03:37:52.768Z,100018.70
2022-09-06T03:38:28.028Z,100018.40
2022-09-06T03:39:01.364Z,100017.29
2022-09-06T03:39:34.641Z,100015.27
2022-09-06T03:40:08.884Z,100015.84
2022-09-06T03:40:45.024Z,100017.23
2022-09-06T03:41:18.096Z,100015.74
2022-09-06T03:41:51.254Z,100015.06
2022-09-06T03:42:26.889Z,100011.81
2022-09-06T03:43:00.150Z,100012.50
2022-09-06T03:43:34.201Z,100009.28
2022-09-06T03:44:07.370Z,100013.22
2022-09-06T03:44:40.541Z,100013.14
2022-09-06T03:45:13.800Z,100009.20
2022-09-06T03:45:50.046Z,100014.59
2022-09-06T03:46:23.271Z,100011.29
2022-09-06T03:46:56.538Z,100011.61
2022-09-06T03:47:29.679Z,100009.47
2022-09-06T03:48:03.302Z,100010.39
2022-09-06T03:48:36.669Z,100011.44
2022-09-06T03:49:10.706Z,100010.95
2022-09-06T03:49:43.810Z,100012.15
2022-09-06T03:50:17.039Z,100009.48
2022-09-06T03:50:52.743Z,100014.77
2022-09-06T03:51:26.455Z,100012.09
2022-09-06T03:51:59.536Z,100007.59
2022-09-06T03:52:33.293Z,100009.91
2022-09-06T03:53:06.369Z,100008.83
2022-09-06T03:53:39.549Z,100010.69
2022-09-06T03:54:12.761Z,100007.99
2022-09-06T03:54:46.209Z,100009.45
2022-09-06T03:55:19.341Z,100008.86
2022-09-06T03:55:54.809Z,100006.91
2022-09-06T03:56:28.582Z,100010.45
2022-09-06T03:57:01.597Z,100006.97
2022-09-06T03:57:34.860Z,100007.62
2022-09-06T03:58:08.005Z,100009.45
2022-09-06T03:58:41.214Z,100007.73
2022-09-06T03:59:14.351Z,100008.36
2022-09-06T03:59:47.493Z,100010.54
2022-09-06T04:00:20.909Z,100008.83
2022-09-06T04:01:10.076Z,100008.84
2022-09-06T04:01:43.475Z,100011.02
2022-09-06T04:02:16.812Z,100010.27
2022-09-06T04:02:50.022Z,100006.48
2022-09-06T04:03:23.200Z,100007.70
2022-09-06T04:03:56.440Z,100005.55
2022-09-06T04:04:29.528Z,100004.77
2022-09-06T04:05:02.695Z,100005.04
2022-09-06T04:05:35.890Z,100001.10
2022-09-06T04:06:09.791Z,100005.48
2022-09-06T04:06:42.970Z,100002.80
2022-09-06T04:07:16.123Z,100002.13
2022-09-06T04:07:49.291Z,100001.27
2022-09-06T04:08:22.397Z,100000.06
2022-09-06T04:08:55.500Z,99999.76
2022-09-06T04:09:28.887Z,100002.23
2022-09-06T04:10:01.962Z,99998.60
2022-09-06T04:10:35.157Z,100002.13
2022-09-06T04:11:08.448Z,99998.48
2022-09-06T04:11:44.946Z,99994.73
2022-09-06T04:12:18.393Z,99996.09
2022-09-06T04:12:51.499Z,99994.91
2022-09-06T04:13:25.981Z,99995.68
2022-09-06T04:13:59.226Z,99994.77
2022-09-06T04:14:32.470Z,99995.48
2022-09-06T04:15:06.408Z,99995.41
2022-09-06T04:15:39.574Z,99993.66
2022-09-06T04:16:13.197Z,99996.52
2022-09-06T04:16:46.337Z,99994.58
2022-09-06T04:17:19.510Z,99995.58
2022-09-06T04:17:52.732Z,99993.98
2022-09-06T04:18:26.289Z,99995.64
2022-09-06T04:19:01.140Z,99993.10
2022-09-06T04:19:34.604Z,99994.38
2022-09-06T04:20:08.104Z,99995.90
2022-09-06T04:20:41.259Z,99996.95
2022-09-06T04:21:14.413Z,99995.17
2022-09-06T04:21:47.505Z,99995.02
2022-09-06T04:22:20.820Z,99995.86
2022-09-06T04:22:54.044Z,99995.30
2022-09-06T04:23:28.916Z,99996.42
2022-09-06T04:24:02.289Z,99996.46
2022-09-06T04:24:35.329Z,99994.73
2022-09-06T04:25:09.419Z,99994.88
2022-09-06T04:25:46.784Z,99998.36
2022-09-06T04:26:20.332Z,99994.27
2022-09-06T04:26:53.566Z,99996.27
2022-09-06T04:27:26.790Z,99993.54
2022-09-06T04:27:59.996Z,99994.53
2022-09-06T04:28:33.153Z,99996.45
2022-09-06T04:29:06.372Z,99995.25
2022-09-06T04:29:39.684Z,99997.45
2022-09-06T04:30:13.005Z,99998.80
2022-09-06T04:30:52.465Z,99996.02
2022-09-06T04:31:26.940Z,99998.31
2022-09-06T04:32:00.492Z,100000.45
2022-09-06T04:32:33.609Z,100002.35
2022-09-06T04:33:06.723Z,100002.73
2022-09-06T04:33:40.415Z,100001.45
2022-09-06T04:34:13.503Z,100001.96
2022-09-06T04:34:46.731Z,100001.02
2022-09-06T04:35:19.874Z,100002.31
2022-09-06T04:35:58.286Z,100001.40
2022-09-06T04:36:31.453Z,100001.07
2022-09-06T04:37:04.807Z,99994.91
2022-09-06T04:37:37.935Z,100001.41
2022-09-06T04:38:11.041Z,100001.48
2022-09-06T04:38:45.318Z,100001.09
2022-09-06T04:39:18.654Z,100002.39
2022-09-06T04:39:51.902Z,100003.16
2022-09-06T04:40:25.269Z,100002.34
2022-09-06T04:40:58.409Z,100003.84
2022-09-06T04:41:31.555Z,100002.18
2022-09-06T04:42:05.172Z,100002.77
2022-09-06T04:42:38.442Z,100004.52
2022-09-06T04:43:11.625Z,100004.96
2022-09-06T04:43:45.161Z,100004.75
2022-09-06T04:44:18.286Z,100004.27
2022-09-06T04:44:51.518Z,100003.89
2022-09-06T04:45:25.144Z,100002.33
2022-09-06T04:46:27.592Z,100005.79
2022-09-06T04:47:14.912Z,100002.96
2022-09-06T04:47:48.456Z,100002.32
2022-09-06T04:48:23.378Z,100002.79
2022-09-06T04:48:58.241Z,100004.05
2022-09-06T04:49:31.453Z,100002.87
2022-09-06T04:50:05.127Z,100002.97
2022-09-06T04:50:38.679Z,100000.80
2022-09-06T04:51:11.866Z,99999.62
2022-09-06T04:51:44.928Z,100000.54
2022-09-06T04:52:18.081Z,100002.47
2022-09-06T04:52:51.382Z,100006.77
2022-09-06T04:53:24.534Z,100005.67
2022-09-06T04:53:57.744Z,100007.80
2022-09-06T04:54:30.914Z,100005.21
2022-09-06T04:55:04.573Z,100006.38
2022-09-06T04:55:37.922Z,100008.71
2022-09-06T04:56:17.175Z,100007.07
2022-09-06T04:56:50.268Z,100010.19
2022-09-06T04:57:23.463Z,100010.48
2022-09-06T04:57:58.719Z,100004.20
2022-09-06T04:58:31.931Z,100010.32
2022-09-06T04:59:05.160Z,100008.10
2022-09-06T04:59:38.361Z,100005.54
2022-09-06T05:00:12.125Z,100006.64
2022-09-06T05:00:45.488Z,100004.50
2022-09-06T05:01:19.008Z,100004.20
2022-09-06T05:01:52.299Z,100003.36
2022-09-06T05:02:25.856Z,100004.08
2022-09-06T05:02:59.268Z,100005.89
2022-09-06T05:03:32.497Z,100003.68
2022-09-06T05:04:05.713Z,100005.48
2022-09-06T05:04:39.000Z,100004.26
2022-09-06T05:05:12.208Z,100005.95
2022-09-06T05:05:45.498Z,100002.52
2022-09-06T05:06:25.555Z,100003.05
2022-09-06T05:07:02.552Z,100002.97
2022-09-06T05:07:35.647Z,99999.54
2022-09-06T05:08:08.904Z,99999.99
2022-09-06T05:08:42.176Z,100001.58
2022-09-06T05:09:15.503Z,99998.52
2022-09-06T05:09:48.735Z,99997.91
2022-09-06T05:10:23.777Z,99999.48
2022-09-06T05:10:56.775Z,99999.11
2022-09-06T05:11:29.895Z,100001.02
2022-09-06T05:12:03.642Z,100002.14
2022-09-06T05:12:40.869Z,99997.59
2022-09-06T05:13:16.653Z,99998.74
2022-09-06T05:13:50.581Z,99999.58
2022-09-06T05:14:23.873Z,99998.49
2022-09-06T05:14:57.051Z,99998.95
2022-09-06T05:15:30.226Z,100001.90
2022-09-06T05:16:05.786Z,100000.88
2022-09-06T05:16:39.103Z,99996.30
2022-09-06T05:17:14.954Z,99997.79
2022-09-06T05:17:48.180Z,99998.69
2022-09-06T05:18:21.343Z,99999.35
2022-09-06T05:18:54.684Z,100001.38
2022-09-06T05:19:28.098Z,99997.61
2022-09-06T05:20:01.327Z,99998.83
2022-09-06T05:20:34.683Z,99995.90
2022-09-06T05:21:08.017Z,99997.90
2022-09-06T05:21:41.367Z,99999.96
2022-09-06T05:22:14.607Z,100000.32
2022-09-06T05:22:56.804Z,100000.41
2022-09-06T05:23:29.935Z,100000.02
2022-09-06T05:24:03.229Z,99999.98
2022-09-06T05:24:36.503Z,100002.27
2022-09-06T05:25:10.752Z,99998.66
2022-09-06T05:25:43.874Z,100000.70
2022-09-06T05:26:17.036Z,99998.95
2022-09-06T05:26:50.219Z,99999.45
2022-09-06T05:27:23.717Z,99998.84
2022-09-06T05:27:56.922Z,99997.29
2022-09-06T05:28:30.013Z,100001.57
2022-09-06T05:29:03.591Z,99999.89
2022-09-06T05:29:36.646Z,100003.80
2022-09-06T05:30:10.651Z,100000.41
2022-09-06T05:30:44.237Z,99999.73
2022-09-06T05:31:32.243Z,100001.63
2022-09-06T05:32:05.692Z,100006.57
2022-09-06T05:32:38.885Z,100004.23
2022-09-06T05:33:14.698Z,99999.73
2022-09-06T05:33:48.035Z,100003.22
2022-09-06T05:34:21.347Z,100005.38
2022-09-06T05:34:54.639Z,100005.14
2022-09-06T05:35:28.113Z,100003.60
2022-09-06T05:36:01.429Z,100003.74
2022-09-06T05:36:34.723Z,100005.73
2022-09-06T05:37:07.970Z,100006.12
2022-09-06T05:37:41.296Z,100006.06
2022-09-06T05:38:14.602Z,100008.39
2022-09-06T05:38:47.906Z,100004.11
2022-09-06T05:39:22.340Z,100005.33
2022-09-06T05:39:55.695Z,100002.75
2022-09-06T05:40:29.033Z,100003.16
2022-09-06T05:41:02.131Z,100005.30
2022-09-06T05:41:35.365Z,100002.31
2022-09-06T05:42:08.763Z,100003.19
2022-09-06T05:42:42.114Z,100003.98
2022-09-06T05:43:15.275Z,100002.73
2022-09-06T05:43:49.485Z,100003.02
2022-09-06T05:44:23.718Z,100005.05
2022-09-06T05:44:56.819Z,100003.55
2022-09-06T05:45:29.963Z,100002.44
2022-09-06T05:46:03.946Z,100001.69
2022-09-06T05:46:43.664Z,100000.34
2022-09-06T05:47:16.883Z,100001.42
2022-09-06T05:47:50.047Z,99999.96
2022-09-06T05:48:23.341Z,100001.08
2022-09-06T05:49:01.415Z,100000.73
2022-09-06T05:49:34.869Z,99997.64
2022-09-06T05:50:08.469Z,100000.11
2022-09-06T05:50:41.579Z,99999.59
2022-09-06T05:51:14.762Z,100000.08
2022-09-06T05:51:51.822Z,100000.08
2022-09-06T05:52:24.989Z,100002.63
2022-09-06T05:52:58.256Z,100002.30
2022-09-06T05:53:40.131Z,100000.70
2022-09-06T05:54:13.654Z,100002.22
2022-09-06T05:54:46.833Z,99999.98
2022-09-06T05:55:20.039Z,99998.70
2022-09-06T05:55:53.188Z,99998.55
2022-09-06T05:56:26.415Z,100000.79
2022-09-06T05:56:59.545Z,100000.07
2022-09-06T05:57:33.133Z,100000.21
2022-09-06T05:58:06.332Z,99999.94
2022-09-06T05:58:39.703Z,99999.42
2022-09-06T05:59:12.865Z,100003.15
2022-09-06T05:59:45.997Z,100003.48
2022-09-06T06:00:19.399Z,100002.79
2022-09-06T06:00:52.658Z,99999.45
2022-09-06T06:01:34.653Z,100001.00
2022-09-06T06:02:08.237Z,99999.48
2022-09-06T06:02:41.586Z,100000.20
2022-09-06T06:03:14.726Z,99996.98
2022-09-06T06:03:54.205Z,99999.20
2022-09-06T06:04:27.268Z,100000.64
2022-09-06T06:05:00.659Z,99999.05
2022-09-06T06:05:33.864Z,100002.21
2022-09-06T06:06:07.202Z,100001.70
2022-09-06T06:06:41.344Z,99999.44
2022-09-06T06:07:15.741Z,99998.42
2022-09-06T06:07:49.610Z,99999.21
2022-09-06T06:08:23.031Z,99998.58
2022-09-06T06:08:56.754Z,99997.58
2022-09-06T06:09:29.941Z,99997.80
2022-09-06T06:10:03.289Z,99994.91
2022-09-06T06:10:39.977Z,99993.80
2022-09-06T06:11:14.226Z,99996.44
2022-09-06T06:11:47.886Z,99996.96
2022-09-06T06:12:20.863Z,99996.45
2022-09-06T06:12:53.881Z,99996.52
2022-09-06T06:13:31.917Z,99998.80
2022-09-06T06:14:05.651Z,99998.83
2022-09-06T06:14:38.851Z,100003.52
2022-09-06T06:15:11.881Z,100000.65
2022-09-06T06:15:45.058Z,99999.58
2022-09-06T06:16:20.649Z,100000.34
2022-09-06T06:16:54.116Z,99994.33
2022-09-06T06:17:28.850Z,99998.12
2022-09-06T06:18:02.021Z,99996.06
2022-09-06T06:18:35.550Z,99994.98
2022-09-06T06:19:08.812Z,99995.63
2022-09-06T06:19:41.952Z,99996.02
2022-09-06T06:20:15.195Z,99994.95
2022-09-06T06:20:48.366Z,99994.36
2022-09-06T06:21:26.545Z,99991.91
2022-09-06T06:21:59.862Z,99995.41
2022-09-06T06:22:32.926Z,99995.26
2022-09-06T06:23:06.114Z,99993.83
2022-09-06T06:23:40.745Z,99995.27
2022-09-06T06:24:14.153Z,99995.21
2022-09-06T06:24:47.343Z,99996.45
2022-09-06T06:25:23.322Z,99997.15
2022-09-06T06:25:56.488Z,99996.80
2022-09-06T06:26:32.999Z,99997.58
2022-09-06T06:27:06.449Z,100001.23
2022-09-06T06:27:39.692Z,99995.65
2022-09-06T06:28:13.007Z,99997.20
2022-09-06T06:28:47.076Z,99997.88
2022-09-06T06:29:20.449Z,99994.38
2022-09-06T06:29:53.466Z,99995.93
2022-09-06T06:30:26.709Z,99998.89
2022-09-06T06:31:00.003Z,99996.87
2022-09-06T06:31:33.834Z,99996.80
2022-09-06T06:32:07.865Z,99999.64
2022-09-06T06:32:41.487Z,99997.99
2022-09-06T06:33:14.505Z,100000.90
2022-09-06T06:33:47.616Z,99999.36
2022-09-06T06:34:22.221Z,99999.70
2022-09-06T06:34:55.362Z,100001.05
2022-09-06T06:35:28.656Z,100000.28
2022-09-06T06:36:05.888Z,100001.91
2022-09-06T06:36:39.136Z,100000.08
2022-09-06T06:37:12.273Z,100003.27
2022-09-06T06:37:46.090Z,100000.23
2022-09-06T06:38:19.095Z,100003.02
2022-09-06T06:38:55.013Z,100005.34
2022-09-06T06:39:28.234Z,100006.95
2022-09-06T06:40:01.479Z,100007.20
2022-09-06T06:40:34.733Z,100008.84
2022-09-06T06:41:10.032Z,100010.15
2022-09-06T06:41:43.203Z,100011.26
2022-09-06T06:42:16.332Z,100008.88
2022-09-06T06:42:49.617Z,100010.29
2022-09-06T06:43:22.995Z,100008.98
2022-09-06T06:44:02.141Z,100009.25
2022-09-06T06:44:35.382Z,100012.87
2022-09-06T06:45:08.982Z,100010.31
2022-09-06T06:45:42.288Z,100010.13
2022-09-06T06:46:18.052Z,100008.20
2022-09-06T06:46:51.919Z,100003.48
2022-09-06T06:47:25.775Z,100003.90
2022-09-06T06:47:58.989Z,100006.48
2022-09-06T06:48:32.323Z,100006.39
2022-09-06T06:49:05.664Z,100004.19
2022-09-06T06:49:38.898Z,100004.76
2022-09-06T06:50:12.013Z,100005.85
2022-09-06T06:50:45.664Z,100005.34
2022-09-06T06:51:20.130Z,100006.25
2022-09-06T06:51:53.302Z,100003.83
2022-09-06T06:52:26.531Z,100005.82